Time;durP1;ratioP1;P1;durP2;ratioP2;P2;SDS_P1;SDS_P2;PMS_P1;PMS_P2;Temp;Humidity;BMP_temperature;BMP_pressure;BME280_temperature;BME280_humidity;BME280_pressure;Samples;Min_cycle;Max_cycle;Signal;HPM_P1;HPM_P2
2022/12/23 00:00:43;;;;;;;5.32;3.28;;;8.00;99.90;;;;;;6160644;23;20021;-71
2022/12/23 00:03:11;;;;;;;4.68;2.10;;;8.00;99.90;;;;;;6160896;23;20005;-71
2022/12/23 00:05:39;;;;;;;5.30;2.40;;;8.00;99.90;;;;;;6159205;23;20366;-71
2022/12/23 00:08:07;;;;;;;5.38;2.40;;;8.00;99.90;;;;;;6160363;23;20006;-72
2022/12/23 00:10:39;;;;;;;4.97;2.58;;;8.10;99.90;;;;;;6160848;23;20012;-71
2022/12/23 00:16:13;;;;;;;4.88;2.60;;;8.10;99.90;;;;;;6160525;23;20079;-71
2022/12/23 00:18:41;;;;;;;5.85;2.97;;;8.20;99.90;;;;;;6160489;23;20027;-71
2022/12/23 00:21:14;;;;;;;8.05;3.17;;;8.20;99.90;;;;;;6159886;23;20012;-72
2022/12/23 00:23:45;;;;;;;6.30;3.28;;;8.30;99.90;;;;;;6160112;23;20047;-71
2022/12/23 00:26:19;;;;;;;3.90;2.30;;;8.30;99.90;;;;;;6160424;23;20258;-71
2022/12/23 00:28:47;;;;;;;4.93;2.50;;;8.30;99.90;;;;;;6158870;23;20001;-71
2022/12/23 00:31:20;;;;;;;5.00;2.60;;;8.40;99.90;;;;;;6159929;23;20024;-72
2022/12/23 00:33:49;;;;;;;5.78;2.78;;;8.40;99.90;;;;;;6159960;23;19998;-72
2022/12/23 00:36:26;;;;;;;3.22;2.33;;;8.50;99.90;;;;;;6160015;23;20002;-72
2022/12/23 00:44:26;;;;;;;4.93;3.45;;;8.60;99.90;;;;;;6159938;23;20017;-72
2022/12/23 00:46:53;;;;;;;7.20;3.63;;;8.70;99.90;;;;;;6158722;23;20398;-72
2022/12/23 00:52:10;;;;;;;7.55;4.28;;;8.70;99.90;;;;;;6159902;23;20015;-72
2022/12/23 00:54:37;;;;;;;7.50;3.83;;;8.70;99.90;;;;;;6159883;23;20028;-72
2022/12/23 00:57:04;;;;;;;11.20;5.10;;;8.70;99.90;;;;;;6160753;23;19997;-72
2022/12/23 00:59:32;;;;;;;10.73;4.57;;;8.70;99.90;;;;;;6158526;23;20054;-72
2022/12/23 01:07:31;;;;;;;5.57;3.90;;;8.70;99.90;;;;;;6160403;23;20292;-72
2022/12/23 01:09:59;;;;;;;7.93;5.28;;;8.70;99.90;;;;;;6159775;23;20009;-71
2022/12/23 01:12:26;;;;;;;8.25;4.88;;;8.80;99.90;;;;;;6159638;23;20012;-72
2022/12/23 01:14:53;;;;;;;9.48;5.07;;;8.80;99.90;;;;;;6159741;23;20072;-72
2022/12/23 01:17:21;;;;;;;9.65;4.60;;;8.80;99.90;;;;;;6160705;23;20057;-71
2022/12/23 01:19:48;;;;;;;12.90;5.18;;;8.80;99.90;;;;;;6159721;23;19997;-72
2022/12/23 01:22:15;;;;;;;12.75;6.55;;;8.80;99.90;;;;;;6158350;23;20013;-72
2022/12/23 01:24:43;;;;;;;13.63;5.85;;;8.80;99.90;;;;;;6160440;23;20010;-71
2022/12/23 01:27:10;;;;;;;11.63;5.93;;;8.80;99.90;;;;;;6161934;23;20060;-72
2022/12/23 01:29:37;;;;;;;12.35;5.68;;;8.80;99.90;;;;;;6161105;23;20076;-71
2022/12/23 01:32:04;;;;;;;12.88;6.55;;;8.80;99.90;;;;;;6161915;23;20014;-71
2022/12/23 01:34:31;;;;;;;12.20;6.65;;;8.80;99.90;;;;;;6162223;23;20056;-72
2022/12/23 01:36:59;;;;;;;14.98;6.22;;;8.80;99.90;;;;;;6162258;23;20022;-72
2022/12/23 01:39:26;;;;;;;19.20;5.97;;;8.80;99.90;;;;;;6161972;23;19998;-71
2022/12/23 01:44:59;;;;;;;8.43;4.77;;;8.80;99.90;;;;;;6161915;23;20012;-71
2022/12/23 01:47:36;;;;;;;9.57;4.45;;;8.80;99.90;;;;;;6162739;23;20271;-71
2022/12/23 01:50:07;;;;;;;11.18;4.28;;;8.80;99.90;;;;;;6160069;23;20394;-72
2022/12/23 01:52:40;;;;;;;7.75;4.35;;;8.80;99.90;;;;;;6161292;23;20017;-72
2022/12/23 01:55:08;;;;;;;9.23;4.85;;;8.80;99.90;;;;;;6160096;23;20006;-72
2022/12/23 01:57:37;;;;;;;15.30;5.38;;;8.90;99.90;;;;;;6162100;23;19998;-72
2022/12/23 02:05:38;;;;;;;9.25;5.32;;;8.90;99.90;;;;;;6161379;23;20012;-71
2022/12/23 02:11:09;;;;;;;;;;;8.90;99.90;;;;;;6162132;23;20060;-72
2022/12/23 02:13:36;;;;;;;8.80;5.15;;;8.90;99.90;;;;;;6161385;23;19911;-71
2022/12/23 02:16:18;;;;;;;13.90;6.97;;;8.90;99.90;;;;;;6161151;23;20060;-71
2022/12/23 02:18:55;;;;;;;10.20;5.78;;;8.90;99.90;;;;;;6161559;23;20013;-71
2022/12/23 02:21:42;;;;;;;10.13;5.88;;;8.90;99.90;;;;;;6160885;23;20009;-72
2022/12/23 02:24:41;;;;;;;9.90;6.13;;;8.90;99.90;;;;;;6161383;23;20002;-71
2022/12/23 02:27:27;;;;;;;10.52;5.22;;;8.90;99.90;;;;;;6161491;23;20002;-71
2022/12/23 02:30:26;;;;;;;11.55;6.07;;;8.90;99.90;;;;;;6161050;23;20256;-71
2022/12/23 02:33:12;;;;;;;11.82;5.65;;;8.90;99.90;;;;;;6161434;23;20275;-71
2022/12/23 02:36:05;;;;;;;12.48;6.38;;;8.90;99.90;;;;;;6160688;23;20037;-71
2022/12/23 02:39:02;;;;;;;8.07;5.00;;;9.00;99.90;;;;;;6161418;23;20384;-71
2022/12/23 02:41:42;;;;;;;11.20;5.70;;;9.00;99.90;;;;;;6159667;23;20017;-71
2022/12/23 02:44:15;;;;;;;13.52;5.35;;;9.00;99.90;;;;;;6161470;23;20006;-71
2022/12/23 02:46:50;;;;;;;11.48;5.93;;;9.00;99.90;;;;;;6160902;23;20028;-71
2022/12/23 02:49:30;;;;;;;12.88;5.57;;;9.00;99.90;;;;;;6160910;23;20034;-71
2022/12/23 02:52:03;;;;;;;9.00;5.05;;;9.00;99.90;;;;;;6160820;23;20001;-71
2022/12/23 02:54:35;;;;;;;10.15;4.95;;;8.90;99.90;;;;;;6160893;23;20005;-71
2022/12/23 02:57:07;;;;;;;9.05;5.68;;;8.90;99.90;;;;;;6160855;23;20021;-71
2022/12/23 02:59:41;;;;;;;11.55;5.25;;;8.90;99.90;;;;;;6159486;23;20080;-71
2022/12/23 03:02:08;;;;;;;12.93;6.30;;;8.90;99.90;;;;;;6161008;23;20005;-71
2022/12/23 03:04:40;;;;;;;10.13;5.63;;;8.90;99.90;;;;;;6159667;23;20028;-71
2022/12/23 03:07:24;;;;;;;14.20;5.78;;;8.90;99.90;;;;;;6161393;23;20005;-71
2022/12/23 03:10:30;;;;;;;15.82;6.30;;;8.90;99.90;;;;;;6160619;23;20010;-71
2022/12/23 03:13:09;;;;;;;10.52;5.32;;;8.90;99.90;;;;;;6161256;23;20002;-71
2022/12/23 03:15:52;;;;;;;12.15;6.50;;;8.90;99.90;;;;;;6161392;23;20001;-71
2022/12/23 03:18:33;;;;;;;10.43;5.85;;;8.90;99.90;;;;;;6160692;23;20029;-71
2022/12/23 03:21:32;;;;;;;12.32;6.22;;;8.90;99.90;;;;;;6160390;23;20028;-71
2022/12/23 03:24:13;;;;;;;12.07;6.43;;;8.90;99.90;;;;;;6160643;23;20005;-71
2022/12/23 03:27:09;;;;;;;13.02;6.65;;;8.90;99.90;;;;;;6160536;23;20009;-72
2022/12/23 03:29:47;;;;;;;10.25;5.47;;;8.90;99.90;;;;;;6161179;23;20004;-71
2022/12/23 03:32:16;;;;;;;11.15;6.30;;;8.90;99.90;;;;;;6160771;23;20025;-72
2022/12/23 03:34:48;;;;;;;11.32;6.28;;;8.90;99.90;;;;;;6160506;23;20053;-72
2022/12/23 03:37:19;;;;;;;12.98;5.80;;;8.90;99.90;;;;;;6159163;23;20327;-71
2022/12/23 03:40:10;;;;;;;11.27;6.75;;;9.00;99.90;;;;;;6161131;23;20001;-72
2022/12/23 03:42:44;;;;;;;15.52;7.18;;;8.90;99.90;;;;;;6159298;23;20448;-72
2022/12/23 03:45:18;;;;;;;19.17;7.63;;;8.90;99.90;;;;;;6160741;23;20013;-71
2022/12/23 03:47:51;;;;;;;16.65;7.93;;;8.90;99.90;;;;;;6160157;23;20006;-72
2022/12/23 03:50:23;;;;;;;13.05;6.93;;;8.90;99.90;;;;;;6160996;23;20006;-71
2022/12/23 03:53:04;;;;;;;10.88;7.07;;;9.00;99.90;;;;;;6159088;23;20412;-72
2022/12/23 03:55:47;;;;;;;11.60;5.78;;;8.90;99.90;;;;;;6160984;23;20255;-72
2022/12/23 03:58:26;;;;;;;16.27;7.85;;;8.90;99.90;;;;;;6160221;23;20036;-71
2022/12/23 04:01:09;;;;;;;12.10;5.25;;;8.90;99.90;;;;;;6160640;23;20002;-72
2022/12/23 04:03:45;;;;;;;9.18;5.25;;;8.90;99.90;;;;;;6160330;23;20006;-71
2022/12/23 04:06:16;;;;;;;7.78;5.00;;;8.90;99.90;;;;;;6160915;23;20080;-72
2022/12/23 04:08:45;;;;;;;9.23;5.25;;;8.90;99.90;;;;;;6160300;23;20008;-72
2022/12/23 04:11:12;;;;;;;9.25;4.82;;;8.90;99.90;;;;;;6158753;23;20091;-72
2022/12/23 04:13:40;;;;;;;9.00;5.50;;;8.90;99.90;;;;;;6134619;23;20267;-72
2022/12/23 04:16:07;;;;;;;11.02;5.18;;;9.00;99.90;;;;;;6158803;23;20076;-72
2022/12/23 04:18:34;;;;;;;9.90;5.55;;;8.90;99.90;;;;;;6159716;23;20056;-72
2022/12/23 04:21:02;;;;;;;11.00;4.88;;;9.00;99.90;;;;;;6160231;23;20330;-72
2022/12/23 04:23:29;;;;;;;8.48;5.60;;;9.00;99.90;;;;;;6160111;23;20002;-72
2022/12/23 04:25:56;;;;;;;11.38;6.43;;;9.00;99.90;;;;;;6158754;23;20009;-72
2022/12/23 04:28:23;;;;;;;11.13;5.80;;;9.00;99.90;;;;;;6159553;23;20052;-72
2022/12/23 04:30:51;;;;;;;11.18;5.10;;;9.00;99.90;;;;;;6159942;23;20421;-72
2022/12/23 04:33:18;;;;;;;10.25;5.60;;;9.00;99.90;;;;;;6160613;23;20248;-72
2022/12/23 04:35:46;;;;;;;10.65;5.10;;;9.00;99.90;;;;;;6160585;23;20001;-72
2022/12/23 04:38:13;;;;;;;7.88;5.28;;;9.00;99.90;;;;;;6160885;23;20359;-72
2022/12/23 04:40:45;;;;;;;7.43;4.15;;;8.90;99.90;;;;;;6158642;23;20012;-71
2022/12/23 04:43:13;;;;;;;9.30;5.15;;;9.00;99.90;;;;;;6159929;23;20036;-71
2022/12/23 04:45:40;;;;;;;9.90;5.18;;;8.90;99.90;;;;;;6158620;23;20009;-71
2022/12/23 04:48:08;;;;;;;8.70;4.72;;;8.90;99.90;;;;;;6160710;23;20005;-71
2022/12/23 04:50:35;;;;;;;7.57;4.55;;;8.90;99.90;;;;;;6159869;23;20056;-71
2022/12/23 04:53:03;;;;;;;8.70;5.22;;;8.90;99.90;;;;;;6160555;23;20013;-71
2022/12/23 04:55:30;;;;;;;7.03;4.28;;;8.90;99.90;;;;;;6158574;23;20017;-71
2022/12/23 04:57:57;;;;;;;7.75;4.60;;;8.90;99.90;;;;;;6158684;23;20005;-71
2022/12/23 05:00:25;;;;;;;9.15;5.03;;;8.80;99.90;;;;;;6159150;23;20008;-71
2022/12/23 05:02:52;;;;;;;10.68;4.57;;;8.90;99.90;;;;;;6160536;23;20032;-71
2022/12/23 05:05:19;;;;;;;8.82;4.30;;;8.90;99.90;;;;;;6162232;23;20080;-69
2022/12/23 05:07:49;;;;;;;7.85;4.45;;;8.90;99.90;;;;;;6160693;23;20404;-71
2022/12/23 05:10:16;;;;;;;6.80;4.53;;;8.90;99.90;;;;;;6161739;23;20032;-71
2022/12/23 05:12:44;;;;;;;5.75;3.67;;;8.90;99.90;;;;;;6161771;23;20002;-71
2022/12/23 05:15:11;;;;;;;7.00;4.07;;;8.90;99.90;;;;;;6162118;23;20001;-71
2022/12/23 05:17:38;;;;;;;6.57;4.07;;;8.90;99.90;;;;;;6162661;23;20303;-71
2022/12/23 05:20:06;;;;;;;5.85;3.97;;;8.90;99.90;;;;;;6162357;23;20029;-71
2022/12/23 05:22:33;;;;;;;5.70;3.53;;;8.90;99.90;;;;;;6161589;23;20020;-71
2022/12/23 05:25:01;;;;;;;6.20;3.47;;;8.90;99.90;;;;;;6161701;23;20414;-71
2022/12/23 05:27:28;;;;;;;9.10;4.70;;;8.90;99.90;;;;;;6160518;23;20010;-72
2022/12/23 05:29:57;;;;;;;7.03;4.72;;;8.90;99.90;;;;;;6135824;23;20010;-71
2022/12/23 05:32:24;;;;;;;5.82;3.80;;;8.90;99.90;;;;;;6162597;23;20274;-71
2022/12/23 05:34:51;;;;;;;7.50;4.60;;;8.90;99.90;;;;;;6161587;23;19997;-71
2022/12/23 05:37:18;;;;;;;9.38;4.10;;;8.90;99.90;;;;;;6161485;23;20052;-71
2022/12/23 05:39:46;;;;;;;9.02;4.20;;;8.90;99.90;;;;;;6162209;23;20032;-71
2022/12/23 05:42:18;;;;;;;8.32;4.75;;;8.90;99.90;;;;;;6160247;23;20096;-71
2022/12/23 05:44:45;;;;;;;7.70;3.97;;;8.90;99.90;;;;;;6161473;23;20001;-71
2022/12/23 05:47:12;;;;;;;7.93;3.88;;;8.90;99.90;;;;;;6160198;23;20010;-71
2022/12/23 05:49:40;;;;;;;6.93;4.57;;;8.90;99.90;;;;;;6160246;23;20006;-71
2022/12/23 05:52:07;;;;;;;9.30;4.70;;;9.00;99.90;;;;;;6161011;23;20081;-71
2022/12/23 05:54:34;;;;;;;7.85;4.32;;;9.00;99.90;;;;;;6161489;23;20005;-71
2022/12/23 05:57:01;;;;;;;8.52;4.70;;;9.00;99.90;;;;;;6160597;23;20306;-71
2022/12/23 05:59:29;;;;;;;8.07;5.35;;;9.00;99.90;;;;;;6161324;23;20044;-71
2022/12/23 06:02:00;;;;;;;9.80;5.15;;;9.00;99.90;;;;;;6161983;23;20087;-71
2022/12/23 06:04:27;;;;;;;11.27;5.97;;;9.00;99.90;;;;;;6161293;23;20048;-71
2022/12/23 06:06:55;;;;;;;10.52;6.97;;;9.00;99.90;;;;;;6161947;23;20006;-71
2022/12/23 06:09:23;;;;;;;13.80;6.57;;;9.00;99.90;;;;;;6162098;23;20006;-71
2022/12/23 06:11:51;;;;;;;13.05;5.88;;;9.00;99.90;;;;;;6160998;23;20009;-71
2022/12/23 06:14:18;;;;;;;12.45;6.25;;;9.00;99.90;;;;;;6161266;23;20001;-71
2022/12/23 06:16:46;;;;;;;10.60;6.03;;;9.00;99.90;;;;;;6159870;23;20028;-71
2022/12/23 06:19:13;;;;;;;11.50;5.78;;;9.00;99.90;;;;;;6161244;23;20002;-72
2022/12/23 06:21:41;;;;;;;8.00;5.05;;;9.00;99.90;;;;;;6161334;23;20021;-72
2022/12/23 06:24:08;;;;;;;11.90;5.10;;;9.00;99.90;;;;;;6161416;23;20032;-72
2022/12/23 06:26:35;;;;;;;8.13;3.95;;;8.90;99.90;;;;;;6161123;23;20312;-72
2022/12/23 06:29:03;;;;;;;7.97;4.30;;;8.90;99.90;;;;;;6161074;23;20032;-71
2022/12/23 06:31:30;;;;;;;8.10;4.20;;;8.90;99.90;;;;;;6160483;23;20005;-72
2022/12/23 06:33:58;;;;;;;11.55;4.30;;;8.90;99.90;;;;;;6160004;23;20102;-72
2022/12/23 06:36:25;;;;;;;7.22;4.07;;;8.90;99.90;;;;;;6159720;23;20005;-72
2022/12/23 06:38:53;;;;;;;6.50;3.70;;;8.90;99.90;;;;;;6159737;23;20001;-71
2022/12/23 06:41:20;;;;;;;12.55;4.32;;;8.90;99.90;;;;;;6160877;23;20011;-72
2022/12/23 06:43:48;;;;;;;7.85;4.32;;;8.90;99.90;;;;;;6161212;23;20263;-71
2022/12/23 06:46:15;;;;;;;12.93;5.47;;;8.90;99.90;;;;;;6159623;23;20001;-71
2022/12/23 06:48:42;;;;;;;8.73;4.30;;;8.90;99.90;;;;;;6159583;23;20084;-72
2022/12/23 06:51:11;;;;;;;9.57;4.25;;;8.90;99.90;;;;;;6161529;23;20002;-71
2022/12/23 06:53:39;;;;;;;4.57;2.85;;;8.90;99.90;;;;;;6161209;23;20001;-71
2022/12/23 06:56:06;;;;;;;4.43;1.67;;;8.90;99.90;;;;;;6160884;23;20240;-72
2022/12/23 06:58:33;;;;;;;2.22;1.20;;;8.80;99.90;;;;;;6161502;23;20340;-72
2022/12/23 07:01:00;;;;;;;1.92;0.90;;;8.80;99.90;;;;;;6159513;23;20322;-72
2022/12/23 07:03:27;;;;;;;1.25;0.60;;;8.80;99.90;;;;;;6159376;23;20104;-72
2022/12/23 07:05:55;;;;;;;1.17;0.50;;;8.70;99.90;;;;;;6159950;23;20009;-72
2022/12/23 07:08:22;;;;;;;0.85;0.40;;;8.70;99.90;;;;;;6161596;23;20390;-72
2022/12/23 07:10:49;;;;;;;1.38;0.60;;;8.70;99.90;;;;;;6161382;23;20001;-72
2022/12/23 07:13:17;;;;;;;9.30;3.53;;;8.70;99.90;;;;;;6160650;23;20079;-72
2022/12/23 07:15:44;;;;;;;1.48;0.60;;;8.60;99.90;;;;;;6161360;23;20414;-72
2022/12/23 07:18:12;;;;;;;2.88;1.10;;;8.60;99.90;;;;;;6161377;23;20072;-72
2022/12/23 07:20:39;;;;;;;4.32;1.00;;;8.60;99.90;;;;;;6184164;23;20002;-72
2022/12/23 07:23:06;;;;;;;1.63;0.70;;;8.60;99.90;;;;;;6158562;23;20017;-72
2022/12/23 07:25:34;;;;;;;1.83;0.90;;;8.50;99.90;;;;;;6159252;23;20009;-72
2022/12/23 07:28:02;;;;;;;0.82;0.50;;;8.50;99.90;;;;;;6160802;23;20006;-71
2022/12/23 07:30:30;;;;;;;1.23;0.55;;;8.50;99.90;;;;;;6160549;23;20002;-72
2022/12/23 07:32:57;;;;;;;1.30;0.68;;;8.50;99.90;;;;;;6160383;23;20255;-72
2022/12/23 07:35:25;;;;;;;1.73;0.75;;;8.40;99.90;;;;;;6160500;23;20029;-72
2022/12/23 07:37:54;;;;;;;1.75;0.55;;;8.40;99.90;;;;;;6160700;23;20002;-71
2022/12/23 07:40:22;;;;;;;1.67;0.88;;;8.40;99.90;;;;;;6160488;23;20375;-71
2022/12/23 07:42:54;;;;;;;1.77;0.98;;;8.40;99.90;;;;;;6159182;23;20015;-72
2022/12/23 07:45:21;;;;;;;2.03;1.10;;;8.30;99.90;;;;;;6160433;23;20060;-72
2022/12/23 07:47:53;;;;;;;2.75;1.30;;;8.30;99.90;;;;;;6160461;23;20005;-71
2022/12/23 07:50:21;;;;;;;2.42;1.60;;;8.30;99.90;;;;;;6160287;23;20013;-71
2022/12/23 07:52:49;;;;;;;5.28;2.13;;;8.30;99.90;;;;;;6159041;23;20001;-71
2022/12/23 07:55:17;;;;;;;11.13;4.07;;;8.30;99.90;;;;;;6160324;23;19997;-71
2022/12/23 07:57:49;;;;;;;11.43;6.63;;;8.30;99.90;;;;;;6160408;23;20069;-71
2022/12/23 08:00:18;;;;;;;7.03;4.40;;;8.30;99.90;;;;;;6160304;23;19998;-71
2022/12/23 08:02:46;;;;;;;7.72;4.43;;;8.30;99.90;;;;;;6160199;23;20006;-71
2022/12/23 08:05:14;;;;;;;7.00;4.43;;;8.30;99.90;;;;;;6160264;23;20437;-71
2022/12/23 08:07:43;;;;;;;5.22;2.92;;;8.30;99.90;;;;;;6160265;23;20005;-71
2022/12/23 08:10:11;;;;;;;3.35;2.10;;;8.20;99.90;;;;;;6159960;23;20005;-71
2022/12/23 08:12:39;;;;;;;3.17;1.70;;;8.20;99.90;;;;;;6159252;23;20267;-71
2022/12/23 08:15:08;;;;;;;3.08;1.50;;;8.30;99.90;;;;;;6159608;23;20009;-72
2022/12/23 08:17:35;;;;;;;2.88;1.55;;;8.30;99.90;;;;;;6160092;23;20327;-71
2022/12/23 08:20:02;;;;;;;3.33;1.95;;;8.30;99.90;;;;;;6158888;23;20384;-72
2022/12/23 08:22:31;;;;;;;4.72;2.03;;;8.30;99.90;;;;;;6159203;23;20052;-71
2022/12/23 08:24:58;;;;;;;4.65;1.98;;;8.30;99.90;;;;;;6160095;23;20397;-72
2022/12/23 08:27:25;;;;;;;3.67;2.20;;;8.40;99.90;;;;;;6160088;23;20271;-71
2022/12/23 08:29:53;;;;;;;11.95;4.47;;;8.40;99.90;;;;;;6160733;23;20005;-72
2022/12/23 08:32:20;;;;;;;59.42;21.15;;;8.40;99.90;;;;;;6160091;23;20056;-72
2022/12/23 08:34:47;;;;;;;140.52;43.53;;;8.40;99.90;;;;;;6159325;23;20029;-71
2022/12/23 08:37:15;;;;;;;44.42;17.05;;;8.40;99.90;;;;;;6158645;23;20009;-71
2022/12/23 08:39:43;;;;;;;30.42;12.50;;;8.40;99.90;;;;;;6160687;23;19998;-71
2022/12/23 08:42:10;;;;;;;13.93;6.95;;;8.40;99.90;;;;;;6160204;23;20005;-71
2022/12/23 08:44:38;;;;;;;13.38;6.50;;;8.40;99.90;;;;;;6159905;23;20033;-71
2022/12/23 08:47:05;;;;;;;12.23;7.22;;;8.40;99.90;;;;;;6160659;23;20351;-71
2022/12/23 08:49:32;;;;;;;14.23;7.55;;;8.40;99.90;;;;;;6158863;23;20006;-71
2022/12/23 08:52:00;;;;;;;9.40;6.20;;;8.40;99.90;;;;;;6158517;23;20010;-72
2022/12/23 08:54:28;;;;;;;16.70;6.57;;;8.40;99.90;;;;;;6159972;23;20397;-71
2022/12/23 08:56:55;;;;;;;9.35;4.90;;;8.30;99.90;;;;;;6159890;23;20076;-71
2022/12/23 08:59:23;;;;;;;9.98;4.95;;;8.30;99.90;;;;;;6134135;23;20025;-71
2022/12/23 09:01:50;;;;;;;8.45;4.90;;;8.30;99.90;;;;;;6158553;23;20177;-71
2022/12/23 09:04:19;;;;;;;9.85;5.55;;;8.30;99.90;;;;;;6158604;23;20248;-71
2022/12/23 09:06:46;;;;;;;11.23;5.93;;;8.30;99.90;;;;;;6158535;23;20061;-71
2022/12/23 09:09:15;;;;;;;12.40;5.30;;;8.30;99.90;;;;;;6158606;23;20006;-72
2022/12/23 09:11:42;;;;;;;9.95;5.85;;;8.40;99.90;;;;;;6159594;23;20093;-72
2022/12/23 09:14:10;;;;;;;13.15;6.38;;;8.40;99.90;;;;;;6160749;23;20052;-72
2022/12/23 09:16:38;;;;;;;17.08;8.13;;;8.50;99.90;;;;;;6158534;23;20009;-71
2022/12/23 09:19:06;;;;;;;18.10;8.15;;;8.50;99.90;;;;;;6159755;23;19998;-71
2022/12/23 09:21:33;;;;;;;16.13;8.85;;;8.50;99.90;;;;;;6159513;23;20100;-72
2022/12/23 09:24:01;;;;;;;12.38;6.57;;;8.50;99.90;;;;;;6159821;23;20026;-72
2022/12/23 09:26:30;;;;;;;17.17;7.88;;;8.60;99.90;;;;;;6158601;23;20005;-69
2022/12/23 09:28:58;;;;;;;12.95;7.47;;;8.60;99.90;;;;;;6159720;23;20009;-69
2022/12/23 09:31:26;;;;;;;14.27;7.22;;;8.70;99.90;;;;;;6159623;23;20302;-71
2022/12/23 09:33:54;;;;;;;13.95;6.40;;;8.70;99.90;;;;;;6159663;23;19998;-72
2022/12/23 09:36:21;;;;;;;15.55;7.97;;;8.80;99.90;;;;;;6158448;23;20056;-72
2022/12/23 09:38:55;;;;;;;12.77;6.80;;;8.80;99.90;;;;;;6159898;23;20024;-72
2022/12/23 09:42:02;;;;;;;16.00;8.05;;;8.90;99.90;;;;;;6160374;23;20002;-72
2022/12/23 09:44:40;;;;;;;12.45;6.90;;;8.90;99.90;;;;;;6101965;23;20005;-72
2022/12/23 09:47:18;;;;;;;15.13;7.82;;;8.90;99.90;;;;;;6161095;23;20006;-72
2022/12/23 09:49:55;;;;;;;11.90;6.22;;;8.90;99.90;;;;;;6161397;23;20371;-72
2022/12/23 09:52:41;;;;;;;11.57;6.47;;;8.90;99.90;;;;;;6162047;23;19997;-71
2022/12/23 09:55:11;;;;;;;13.60;6.70;;;8.80;99.90;;;;;;6162146;23;20370;-72
2022/12/23 09:57:59;;;;;;;13.48;6.72;;;8.80;99.90;;;;;;6161408;23;20072;-72
2022/12/23 10:00:42;;;;;;;13.32;6.18;;;8.80;99.90;;;;;;6161374;23;20021;-72
2022/12/23 10:03:35;;;;;;;14.88;6.72;;;8.80;99.90;;;;;;6162016;23;20001;-71
2022/12/23 10:06:15;;;;;;;13.27;7.10;;;8.70;99.90;;;;;;6160025;23;20009;-72
2022/12/23 10:08:49;;;;;;;12.77;6.35;;;8.70;99.90;;;;;;6161486;23;20375;-71
2022/12/23 10:11:22;;;;;;;13.20;6.65;;;8.70;99.90;;;;;;6161886;23;20044;-72
2022/12/23 10:13:55;;;;;;;10.98;6.63;;;8.70;99.90;;;;;;6161635;23;20001;-72
2022/12/23 10:16:35;;;;;;;14.93;6.72;;;8.80;99.90;;;;;;6161620;23;20263;-72
2022/12/23 10:19:25;;;;;;;14.70;6.88;;;8.80;99.90;;;;;;6161667;23;20012;-72
2022/12/23 10:22:01;;;;;;;12.25;6.88;;;8.90;99.90;;;;;;6161012;23;20386;-72
2022/12/23 10:24:40;;;;;;;12.93;7.05;;;8.90;99.90;;;;;;6161520;23;20005;-71
2022/12/23 10:27:32;;;;;;;16.23;8.30;;;8.90;99.90;;;;;;6161249;23;20005;-71
2022/12/23 10:30:11;;;;;;;16.45;8.02;;;8.90;99.90;;;;;;6161506;23;20069;-72
2022/12/23 10:32:52;;;;;;;15.00;8.95;;;8.90;99.90;;;;;;6160957;23;20040;-72
2022/12/23 10:35:50;;;;;;;15.32;9.40;;;8.90;99.90;;;;;;6162430;23;20001;-72
2022/12/23 10:38:33;;;;;;;17.92;8.63;;;8.90;99.90;;;;;;6162529;23;19997;-72
2022/12/23 10:41:29;;;;;;;30.17;14.82;;;9.00;99.90;;;;;;6162045;23;20001;-72
2022/12/23 10:44:14;;;;;;;24.63;12.43;;;9.00;99.90;;;;;;6162645;23;20025;-71
2022/12/23 10:47:10;;;;;;;33.53;16.33;;;9.10;99.90;;;;;;6160981;23;20006;-71
2022/12/23 10:49:48;;;;;;;20.85;11.10;;;9.10;99.90;;;;;;6136619;23;20133;-72
2022/12/23 10:52:21;;;;;;;108.60;49.20;;;9.20;99.90;;;;;;6162161;23;20006;-72
2022/12/23 10:54:49;;;;;;;30.27;15.35;;;9.20;99.90;;;;;;6159526;23;20008;-71
2022/12/23 10:57:19;;;;;;;23.65;12.13;;;9.20;99.90;;;;;;6160586;23;20002;-71
2022/12/23 10:59:46;;;;;;;19.00;10.00;;;9.30;99.90;;;;;;6160536;23;20001;-72
2022/12/23 11:02:14;;;;;;;19.88;10.60;;;9.30;99.90;;;;;;6164659;23;19986;-71
2022/12/23 11:04:47;;;;;;;17.48;9.85;;;9.30;99.90;;;;;;6161331;23;20029;-72
2022/12/23 11:07:19;;;;;;;17.23;11.30;;;9.30;99.90;;;;;;6161258;23;20073;-71
2022/12/23 11:10:19;;;;;;;21.58;12.68;;;9.30;99.90;;;;;;6161450;23;20291;-71
2022/12/23 11:12:49;;;;;;;26.58;16.25;;;9.30;99.90;;;;;;6161511;23;20006;-71
2022/12/23 11:15:26;;;;;;;18.30;10.00;;;9.30;99.90;;;;;;6161079;23;20001;-71
2022/12/23 11:18:01;;;;;;;17.27;9.48;;;9.30;99.90;;;;;;6161341;23;20002;-71
2022/12/23 11:20:29;;;;;;;22.90;11.27;;;9.30;99.90;;;;;;6161297;23;20005;-71
2022/12/23 11:23:00;;;;;;;19.67;9.95;;;9.30;99.90;;;;;;6160503;23;20045;-71
2022/12/23 11:25:32;;;;;;;18.63;10.43;;;9.30;99.90;;;;;;6160830;23;20009;-71
2022/12/23 11:28:06;;;;;;;18.20;9.77;;;9.30;99.90;;;;;;6160530;23;20040;-71
2022/12/23 11:30:50;;;;;;;17.83;10.00;;;9.40;99.90;;;;;;6160589;23;20072;-71
2022/12/23 11:33:28;;;;;;;18.67;10.68;;;9.40;99.90;;;;;;6161063;23;20018;-71
2022/12/23 11:36:13;;;;;;;18.13;10.33;;;9.40;99.90;;;;;;6160523;23;20002;-71
2022/12/23 11:39:01;;;;;;;16.48;9.32;;;9.40;99.90;;;;;;6161209;23;20024;-71
2022/12/23 11:41:51;;;;;;;18.38;10.15;;;9.40;99.90;;;;;;6160365;23;20005;-71
2022/12/23 11:44:32;;;;;;;20.65;9.68;;;9.40;99.90;;;;;;6160888;23;20064;-71
2022/12/23 11:47:25;;;;;;;19.98;10.20;;;9.40;99.90;;;;;;6160456;23;20005;-71
2022/12/23 11:49:57;;;;;;;18.38;9.75;;;9.40;99.90;;;;;;6160567;23;20001;-71
2022/12/23 11:52:29;;;;;;;19.65;9.73;;;9.40;99.90;;;;;;6159104;23;20044;-71
2022/12/23 11:54:59;;;;;;;23.50;9.93;;;9.40;99.90;;;;;;6160647;23;20005;-71
2022/12/23 11:57:46;;;;;;;19.08;9.27;;;9.40;99.90;;;;;;6160598;23;20082;-71
2022/12/23 12:00:26;;;;;;;18.90;10.55;;;9.40;99.90;;;;;;6158938;23;20006;-71
2022/12/23 12:02:59;;;;;;;17.40;9.32;;;9.40;99.90;;;;;;6160621;23;20009;-71
2022/12/23 12:05:35;;;;;;;19.10;9.77;;;9.40;99.90;;;;;;6160170;23;20024;-71
2022/12/23 12:08:14;;;;;;;17.58;8.43;;;9.40;99.90;;;;;;6160248;23;20009;-71
2022/12/23 12:10:42;;;;;;;17.20;9.00;;;9.40;99.90;;;;;;6159969;23;20097;-71
2022/12/23 12:13:32;;;;;;;17.20;9.38;;;9.30;99.90;;;;;;6160180;23;20037;-71
2022/12/23 12:16:29;;;;;;;18.35;9.10;;;9.30;99.90;;;;;;6160821;23;19997;-71
2022/12/23 12:19:05;;;;;;;19.05;9.68;;;9.30;99.90;;;;;;6160351;23;20036;-71
2022/12/23 12:21:37;;;;;;;20.17;9.57;;;9.30;99.90;;;;;;6160220;23;20092;-71
2022/12/23 12:24:24;;;;;;;18.85;9.27;;;9.40;99.90;;;;;;6160956;23;20009;-72
2022/12/23 12:26:57;;;;;;;16.70;9.93;;;9.40;99.90;;;;;;6160818;23;20025;-71
2022/12/23 12:29:41;;;;;;;16.48;8.90;;;9.50;99.90;;;;;;6160054;23;20006;-71
2022/12/23 12:32:35;;;;;;;17.67;9.35;;;9.50;99.90;;;;;;6160830;23;20009;-72
2022/12/23 12:35:15;;;;;;;14.90;8.40;;;9.50;99.90;;;;;;6155317;23;20417;-71
2022/12/23 12:38:02;;;;;;;18.50;9.05;;;9.50;99.90;;;;;;6159938;23;20002;-71
2022/12/23 12:40:40;;;;;;;17.05;9.50;;;9.50;99.90;;;;;;6158686;23;20052;-71
2022/12/23 12:43:18;;;;;;;16.95;9.38;;;9.50;99.90;;;;;;6160813;23;20002;-71
2022/12/23 12:45:48;;;;;;;16.48;9.40;;;9.50;99.90;;;;;;6159976;23;20466;-69
2022/12/23 12:48:26;;;;;;;19.83;9.45;;;9.50;99.90;;;;;;6160218;23;20080;-69
2022/12/23 12:51:09;;;;;;;18.75;9.25;;;9.50;99.90;;;;;;6160631;23;20005;-69
2022/12/23 12:53:56;;;;;;;17.92;8.77;;;9.40;99.90;;;;;;6161027;23;20361;-69
2022/12/23 12:56:35;;;;;;;;;;;9.40;99.90;;;;;;6160447;23;20001;-69
2022/12/23 12:59:03;;;;;;;20.05;10.98;;;9.40;99.90;;;;;;6160330;23;20169;-69
2022/12/23 13:02:07;;;;;;;22.08;10.88;;;9.30;99.90;;;;;;6159909;23;20081;-71
2022/12/23 13:04:49;;;;;;;17.35;9.68;;;9.30;99.90;;;;;;6159911;23;20301;-71
2022/12/23 13:07:24;;;;;;;19.13;9.52;;;9.20;99.90;;;;;;6159946;23;20355;-71
2022/12/23 13:10:07;;;;;;;16.73;9.75;;;9.20;99.90;;;;;;6159770;23;20020;-71
2022/12/23 13:12:46;;;;;;;16.10;9.43;;;9.20;99.90;;;;;;6160463;23;20006;-71
2022/12/23 13:15:24;;;;;;;21.02;10.50;;;9.10;99.90;;;;;;6160496;23;20048;-69
2022/12/23 13:18:13;;;;;;;17.00;9.98;;;9.10;99.90;;;;;;6159967;23;19998;-71
2022/12/23 13:21:21;;;;;;;17.55;9.57;;;9.00;99.90;;;;;;6158499;23;20036;-71
2022/12/23 13:23:48;;;;;;;;;;;9.00;99.90;;;;;;6120540;23;20036;-71
2022/12/23 13:26:30;;;;;;;19.20;10.20;;;9.00;99.90;;;;;;6162117;23;19907;-71
2022/12/23 13:29:38;;;;;;;21.45;11.35;;;9.00;99.90;;;;;;6162588;23;20356;-71
2022/12/23 13:32:41;;;;;;;18.35;9.80;;;9.00;99.90;;;;;;6161279;23;20009;-71
2022/12/23 13:35:36;;;;;;;20.67;10.88;;;8.90;99.90;;;;;;6141934;23;20001;-71
2022/12/23 13:38:22;;;;;;;20.48;10.15;;;8.90;99.90;;;;;;6162489;23;20039;-71
2022/12/23 13:41:13;;;;;;;21.35;10.40;;;8.90;99.90;;;;;;6160301;23;20036;-71
2022/12/23 13:44:04;;;;;;;19.08;10.07;;;8.90;99.90;;;;;;6160274;23;20084;-71
2022/12/23 13:47:07;;;;;;;19.75;9.60;;;8.90;99.90;;;;;;6161552;23;20002;-71
2022/12/23 13:49:41;;;;;;;18.58;9.40;;;8.80;99.90;;;;;;6161380;23;20088;-71
2022/12/23 13:52:21;;;;;;;21.40;10.10;;;8.80;99.90;;;;;;6162127;23;20077;-71